Time;durP1;ratioP1;P1;durP2;ratioP2;P2;SDS_P1;SDS_P2;PMS_P1;PMS_P2;Temp;Humidity;BMP_temperature;BMP_pressure;BME280_temperature;BME280_humidity;BME280_pressure;Samples;Min_cycle;Max_cycle;Signal;HPM_P1;HPM_P2
2023/08/22 00:01:18;;;;;;;7.35;6.85;;;27.10;99.90;;;;;;5065244;28;20202;-76
2023/08/22 00:03:46;;;;;;;8.73;8.02;;;27.10;99.90;;;;;;5063539;28;20288;-76
2023/08/22 00:06:13;;;;;;;9.05;8.35;;;27.10;99.90;;;;;;5064885;28;20245;-76
2023/08/22 00:08:41;;;;;;;8.00;7.40;;;27.10;99.90;;;;;;5065812;28;20206;-76
2023/08/22 00:11:08;;;;;;;8.35;7.65;;;27.10;99.90;;;;;;5062791;28;20204;-77
2023/08/22 00:13:35;;;;;;;8.15;7.53;;;27.00;99.90;;;;;;5059723;28;20218;-76
2023/08/22 00:16:02;;;;;;;8.40;7.70;;;27.00;99.90;;;;;;5063628;28;20253;-77
2023/08/22 00:18:28;;;;;;;8.10;7.50;;;27.00;99.90;;;;;;5068500;28;20853;-77
2023/08/22 00:20:56;;;;;;;8.23;7.63;;;27.00;99.90;;;;;;5063950;28;20231;-76
2023/08/22 00:23:23;;;;;;;8.00;7.40;;;27.00;99.90;;;;;;5063666;28;20203;-76
2023/08/22 00:25:52;;;;;;;8.40;7.60;;;27.00;99.90;;;;;;5058480;28;20194;-76
2023/08/22 00:28:19;;;;;;;8.48;7.78;;;27.00;99.90;;;;;;5067204;28;20190;-76
2023/08/22 00:30:46;;;;;;;8.15;7.55;;;27.00;99.90;;;;;;5065283;28;20205;-76
2023/08/22 00:33:13;;;;;;;7.80;7.20;;;27.00;99.90;;;;;;5066899;28;20202;-76
2023/08/22 00:35:40;;;;;;;8.20;7.50;;;27.00;99.90;;;;;;5062482;28;20249;-78
2023/08/22 00:38:07;;;;;;;8.38;7.70;;;26.90;99.90;;;;;;5068445;28;20194;-77
2023/08/22 00:40:34;;;;;;;8.98;8.18;;;26.90;99.90;;;;;;5062529;28;20203;-76
2023/08/22 00:43:03;;;;;;;8.07;7.47;;;26.90;99.90;;;;;;5067753;28;20489;-76
2023/08/22 00:45:30;;;;;;;8.73;8.02;;;26.90;99.90;;;;;;5062454;28;20230;-76
2023/08/22 00:47:57;;;;;;;8.43;7.72;;;26.90;99.90;;;;;;5065639;28;20268;-76
2023/08/22 00:50:24;;;;;;;9.07;8.27;;;26.90;99.90;;;;;;5062398;28;20259;-77
2023/08/22 00:52:51;;;;;;;8.18;7.57;;;26.90;99.90;;;;;;5066102;28;20194;-76
2023/08/22 00:55:19;;;;;;;8.20;7.47;;;26.80;99.90;;;;;;5065076;28;20236;-77
2023/08/22 00:57:46;;;;;;;8.93;8.13;;;26.80;99.90;;;;;;5068599;28;20226;-77
2023/08/22 01:00:15;;;;;;;8.48;7.88;;;26.70;99.90;;;;;;5065999;28;20202;-77
2023/08/22 01:02:42;;;;;;;8.60;8.00;;;26.70;99.90;;;;;;5063044;28;20178;-77
2023/08/22 01:05:11;;;;;;;8.13;7.53;;;26.70;99.90;;;;;;5066351;28;20576;-76
2023/08/22 01:07:45;;;;;;;8.10;7.30;;;26.70;99.90;;;;;;5066512;28;20229;-76
2023/08/22 01:10:18;;;;;;;9.18;8.30;;;26.60;99.90;;;;;;5064368;28;20209;-77
2023/08/22 01:12:52;;;;;;;8.65;7.95;;;26.60;99.90;;;;;;5068419;28;20260;-77
2023/08/22 01:15:24;;;;;;;8.73;8.02;;;26.60;99.90;;;;;;5066014;28;20838;-76
2023/08/22 01:17:53;;;;;;;8.77;8.10;;;26.60;99.90;;;;;;5065014;28;20218;-77
2023/08/22 01:20:21;;;;;;;9.65;8.95;;;26.60;99.90;;;;;;5064295;28;20278;-75
2023/08/22 01:22:49;;;;;;;9.98;8.80;;;26.50;99.90;;;;;;5063489;28;20279;-77
2023/08/22 01:25:16;;;;;;;9.38;8.50;;;26.50;99.90;;;;;;5056080;28;20706;-77
2023/08/22 01:27:54;;;;;;;9.57;8.77;;;26.50;99.90;;;;;;5065443;28;20218;-77
2023/08/22 01:30:30;;;;;;;8.95;8.23;;;26.50;99.90;;;;;;5063385;28;20206;-76
2023/08/22 01:33:03;;;;;;;9.07;8.27;;;26.50;99.90;;;;;;5064390;28;20197;-76
2023/08/22 01:35:31;;;;;;;9.18;8.43;;;26.50;99.90;;;;;;5060922;28;20249;-76
2023/08/22 01:38:01;;;;;;;8.68;7.97;;;26.50;99.90;;;;;;5063715;28;20248;-77
2023/08/22 01:40:29;;;;;;;9.13;8.30;;;26.40;99.90;;;;;;5062985;28;20235;-76
2023/08/22 01:42:57;;;;;;;8.95;8.15;;;26.40;99.90;;;;;;5064495;28;20202;-76
2023/08/22 01:45:24;;;;;;;9.00;8.30;;;26.40;99.90;;;;;;5064346;28;20619;-76
2023/08/22 01:47:51;;;;;;;8.85;8.15;;;26.40;99.90;;;;;;5064097;28;20226;-77
2023/08/22 01:50:18;;;;;;;9.05;8.25;;;26.40;99.90;;;;;;5064260;28;20252;-77
2023/08/22 01:52:44;;;;;;;9.25;8.50;;;26.40;99.90;;;;;;5062613;28;20252;-76
2023/08/22 01:55:14;;;;;;;8.77;8.07;;;26.40;99.90;;;;;;5063090;28;20279;-77
2023/08/22 01:57:41;;;;;;;8.30;7.70;;;26.40;99.90;;;;;;5064625;28;20238;-78
2023/08/22 02:00:09;;;;;;;8.88;8.20;;;26.40;99.90;;;;;;5064093;28;20198;-76
2023/08/22 02:02:36;;;;;;;8.82;8.23;;;26.40;99.90;;;;;;5062183;28;20210;-77
2023/08/22 02:05:03;;;;;;;8.18;7.50;;;26.30;99.90;;;;;;5060644;28;20194;-77
2023/08/22 02:07:31;;;;;;;8.85;8.15;;;26.30;99.90;;;;;;5057451;28;20230;-77
2023/08/22 02:09:58;;;;;;;9.30;8.40;;;26.30;99.90;;;;;;5063895;28;20255;-76
2023/08/22 02:12:27;;;;;;;9.27;8.55;;;26.30;99.90;;;;;;5065602;28;20216;-76
2023/08/22 02:14:54;;;;;;;8.95;8.20;;;26.30;99.90;;;;;;5060949;28;20387;-78
2023/08/22 02:17:21;;;;;;;9.10;8.27;;;26.20;99.90;;;;;;5062511;28;20777;-76
2023/08/22 02:19:48;;;;;;;8.43;7.72;;;26.20;99.90;;;;;;5061476;28;20627;-76
2023/08/22 02:22:15;;;;;;;8.98;8.27;;;26.20;99.90;;;;;;5060510;28;20222;-76
2023/08/22 02:24:42;;;;;;;9.68;8.88;;;26.20;99.90;;;;;;5066292;28;20223;-76
2023/08/22 02:27:09;;;;;;;9.30;8.52;;;26.20;99.90;;;;;;5061882;28;20711;-77
2023/08/22 02:29:37;;;;;;;9.32;8.63;;;26.20;99.90;;;;;;5066822;28;20203;-76
2023/08/22 02:32:04;;;;;;;9.18;8.38;;;26.20;99.90;;;;;;5065739;28;20660;-77
2023/08/22 02:34:31;;;;;;;8.98;8.32;;;26.10;99.90;;;;;;5067160;28;20295;-77
2023/08/22 02:36:58;;;;;;;8.73;8.13;;;26.10;99.90;;;;;;5067118;28;20241;-77
2023/08/22 02:39:25;;;;;;;8.70;8.07;;;26.10;99.90;;;;;;5061756;28;20194;-77
2023/08/22 02:41:52;;;;;;;9.13;8.43;;;26.10;99.90;;;;;;5066270;28;20271;-76
2023/08/22 02:44:19;;;;;;;9.15;8.45;;;26.10;99.90;;;;;;5059351;28;20196;-78
2023/08/22 02:46:47;;;;;;;8.90;8.27;;;26.10;99.90;;;;;;5066815;28;20279;-77
2023/08/22 02:49:14;;;;;;;9.32;8.52;;;26.00;99.90;;;;;;5065195;28;20216;-77
2023/08/22 02:51:41;;;;;;;8.70;8.10;;;26.00;99.90;;;;;;5070997;28;20202;-78
2023/08/22 02:54:08;;;;;;;8.20;7.60;;;26.00;99.90;;;;;;5064765;28;20198;-73
2023/08/22 02:56:35;;;;;;;9.18;8.45;;;25.90;99.90;;;;;;5062492;28;20226;-74
2023/08/22 02:59:03;;;;;;;9.95;9.15;;;25.90;99.90;;;;;;5065566;28;20187;-77
2023/08/22 03:01:30;;;;;;;9.27;8.57;;;25.90;99.90;;;;;;5070518;28;20216;-76
2023/08/22 03:03:58;;;;;;;8.57;7.88;;;25.90;99.90;;;;;;5067463;28;20717;-74
2023/08/22 03:06:25;;;;;;;9.05;8.35;;;25.90;99.90;;;;;;5064884;28;20223;-77
2023/08/22 03:08:52;;;;;;;9.82;9.02;;;25.90;99.90;;;;;;5068761;28;20198;-77
2023/08/22 03:11:19;;;;;;;10.48;9.68;;;25.90;99.90;;;;;;5064025;28;20252;-75
2023/08/22 03:13:46;;;;;;;9.93;9.13;;;25.80;99.90;;;;;;5069070;28;20722;-76
2023/08/22 03:16:13;;;;;;;9.52;8.70;;;25.80;99.90;;;;;;5066796;28;20218;-75
2023/08/22 03:18:40;;;;;;;9.60;8.90;;;25.80;99.90;;;;;;5068431;28;20198;-74
2023/08/22 03:21:09;;;;;;;10.23;9.20;;;25.80;99.90;;;;;;5067807;28;20202;-75
2023/08/22 03:23:36;;;;;;;9.60;8.80;;;25.80;99.90;;;;;;5063455;28;20202;-76
2023/08/22 03:26:04;;;;;;;9.57;8.75;;;25.70;99.90;;;;;;5066669;28;20218;-76
2023/08/22 03:28:33;;;;;;;9.63;8.82;;;25.70;99.90;;;;;;5067731;28;20573;-74
2023/08/22 03:31:03;;;;;;;9.30;8.60;;;25.70;99.90;;;;;;5063891;28;20321;-76
2023/08/22 03:33:31;;;;;;;9.65;8.93;;;25.70;99.90;;;;;;5070983;28;20216;-74
2023/08/22 03:35:58;;;;;;;9.20;8.52;;;25.60;99.90;;;;;;5058921;28;20689;-75
2023/08/22 03:38:27;;;;;;;9.10;8.30;;;25.60;99.90;;;;;;5064713;28;20390;-77
2023/08/22 03:40:56;;;;;;;9.18;8.38;;;25.60;99.90;;;;;;5066774;28;20344;-77
2023/08/22 03:43:23;;;;;;;8.57;7.88;;;25.60;99.90;;;;;;5063963;28;20202;-75
2023/08/22 03:45:50;;;;;;;9.43;8.63;;;25.60;99.90;;;;;;5061357;28;20198;-74
2023/08/22 03:48:17;;;;;;;10.10;9.10;;;25.60;99.90;;;;;;5064767;28;20198;-75
2023/08/22 03:50:44;;;;;;;9.40;8.63;;;25.60;99.90;;;;;;5066469;28;20652;-77
2023/08/22 03:53:12;;;;;;;9.30;8.55;;;25.60;99.90;;;;;;5066381;28;20194;-75
2023/08/22 03:55:41;;;;;;;9.60;8.80;;;25.60;99.90;;;;;;5060184;28;20253;-76
2023/08/22 03:58:08;;;;;;;9.82;8.88;;;25.50;99.90;;;;;;5062484;28;20199;-73
2023/08/22 04:00:35;;;;;;;9.68;8.88;;;25.50;99.90;;;;;;5061059;28;20206;-75
2023/08/22 04:03:02;;;;;;;9.07;8.20;;;25.50;99.90;;;;;;5065546;28;20569;-75
2023/08/22 04:05:29;;;;;;;9.48;8.68;;;25.50;99.90;;;;;;5062874;28;20203;-75
2023/08/22 04:07:56;;;;;;;9.63;8.90;;;25.40;99.90;;;;;;5062760;28;20639;-74
2023/08/22 04:10:23;;;;;;;9.57;8.68;;;25.40;99.90;;;;;;5069334;28;20248;-75
2023/08/22 04:12:52;;;;;;;10.00;9.10;;;25.30;99.90;;;;;;5063854;28;20202;-75
2023/08/22 04:15:19;;;;;;;9.55;8.85;;;25.30;99.90;;;;;;5063221;28;20261;-76
2023/08/22 04:17:46;;;;;;;10.25;9.45;;;25.30;99.90;;;;;;5066065;28;20406;-77
2023/08/22 04:20:13;;;;;;;9.90;9.20;;;25.30;99.90;;;;;;5068009;28;20199;-75
2023/08/22 04:22:42;;;;;;;9.95;9.15;;;25.30;99.90;;;;;;5063634;28;20217;-75
2023/08/22 04:25:10;;;;;;;10.18;9.23;;;25.20;99.90;;;;;;5065663;28;20277;-74
2023/08/22 04:27:37;;;;;;;9.63;8.88;;;25.10;99.90;;;;;;5061942;28;20280;-75
2023/08/22 04:30:07;;;;;;;9.27;8.57;;;25.10;99.90;;;;;;5063016;28;20774;-74
2023/08/22 04:32:33;;;;;;;9.75;9.05;;;25.10;99.90;;;;;;5062235;28;20202;-74
2023/08/22 04:35:00;;;;;;;10.15;9.35;;;25.10;99.90;;;;;;5063964;28;20221;-75
2023/08/22 04:37:28;;;;;;;10.20;9.38;;;25.20;99.90;;;;;;5066950;28;20688;-75
2023/08/22 04:39:55;;;;;;;10.07;9.18;;;25.20;99.90;;;;;;5064789;28;20294;-74
2023/08/22 04:42:22;;;;;;;10.95;10.05;;;25.20;99.90;;;;;;5063252;28;20252;-75
2023/08/22 04:44:49;;;;;;;10.27;9.30;;;25.20;99.90;;;;;;5064459;28;20650;-74
2023/08/22 04:47:17;;;;;;;11.80;10.80;;;25.20;99.90;;;;;;5066031;28;20271;-75
2023/08/22 04:49:45;;;;;;;11.30;10.38;;;25.20;99.90;;;;;;5061188;28;20434;-75
2023/08/22 04:52:12;;;;;;;10.45;9.60;;;25.10;99.90;;;;;;5064233;28;20292;-75
2023/08/22 04:54:39;;;;;;;9.95;9.05;;;25.00;99.90;;;;;;5062336;28;20252;-76
2023/08/22 04:57:07;;;;;;;10.90;9.77;;;25.00;99.90;;;;;;5064986;28;20226;-75
2023/08/22 04:59:34;;;;;;;11.65;10.68;;;25.00;99.90;;;;;;5062002;28;20275;-75
2023/08/22 05:02:01;;;;;;;10.15;9.32;;;25.00;99.90;;;;;;5068859;28;20201;-75
2023/08/22 05:04:29;;;;;;;9.95;9.15;;;25.00;99.90;;;;;;5062645;28;20203;-75
2023/08/22 05:06:56;;;;;;;9.80;9.10;;;25.00;99.90;;;;;;5067193;28;20217;-74
2023/08/22 05:09:23;;;;;;;9.88;9.07;;;25.00;99.90;;;;;;5068111;28;20206;-75
2023/08/22 05:11:51;;;;;;;10.45;9.55;;;25.20;99.90;;;;;;5068070;28;20198;-75
2023/08/22 05:14:17;;;;;;;9.93;9.07;;;25.30;99.90;;;;;;5061579;28;20226;-75
2023/08/22 05:16:45;;;;;;;9.00;8.27;;;25.50;99.90;;;;;;5059721;28;20704;-74
2023/08/22 05:19:12;;;;;;;9.35;8.65;;;25.70;99.90;;;;;;5063053;28;20894;-76
2023/08/22 05:21:40;;;;;;;8.82;8.13;;;25.70;99.90;;;;;;5066239;28;20260;-76
2023/08/22 05:24:11;;;;;;;9.32;8.52;;;25.80;99.90;;;;;;5062965;28;20745;-79
2023/08/22 05:26:37;;;;;;;8.70;7.93;;;26.00;99.90;;;;;;5066772;28;20601;-79
2023/08/22 05:29:04;;;;;;;8.52;7.85;;;26.20;99.90;;;;;;5072263;28;20194;-79
2023/08/22 05:31:32;;;;;;;8.93;8.23;;;26.40;99.90;;;;;;5068411;28;20209;-78
2023/08/22 05:33:59;;;;;;;7.63;7.03;;;26.60;99.90;;;;;;5067925;28;20249;-76
2023/08/22 05:36:26;;;;;;;7.90;7.22;;;26.70;99.90;;;;;;5061783;28;20279;-76
2023/08/22 05:38:54;;;;;;;9.20;8.50;;;26.90;99.90;;;;;;5069809;28;20248;-77
2023/08/22 05:41:21;;;;;;;9.38;8.57;;;26.80;99.90;;;;;;5066119;28;20653;-76
2023/08/22 05:43:48;;;;;;;9.88;8.98;;;26.80;99.90;;;;;;5071347;28;20202;-76
2023/08/22 05:46:15;;;;;;;8.63;7.88;;;26.80;99.90;;;;;;5063632;28;20282;-75
2023/08/22 05:48:42;;;;;;;8.27;7.68;;;26.80;99.90;;;;;;5063838;28;20607;-75
2023/08/22 05:51:09;;;;;;;9.82;8.93;;;26.80;99.90;;;;;;5058818;28;20198;-75
2023/08/22 05:53:36;;;;;;;9.05;8.25;;;26.70;99.90;;;;;;5065008;28;20260;-76
2023/08/22 05:56:04;;;;;;;9.70;8.85;;;26.70;99.90;;;;;;5058822;28;20300;-75
2023/08/22 05:58:34;;;;;;;9.38;8.57;;;26.80;99.90;;;;;;5065915;28;20210;-75
2023/08/22 06:01:07;;;;;;;9.02;8.32;;;27.00;99.90;;;;;;5061188;28;20220;-76
2023/08/22 06:03:34;;;;;;;9.52;8.52;;;27.20;99.90;;;;;;5063311;28;20219;-75
2023/08/22 06:06:02;;;;;;;8.60;7.80;;;27.40;99.90;;;;;;5057722;28;20261;-74
2023/08/22 06:08:29;;;;;;;8.05;7.45;;;27.60;99.90;;;;;;5066391;28;20217;-77
2023/08/22 06:10:56;;;;;;;8.55;7.90;;;27.80;99.90;;;;;;5066778;28;20197;-76
2023/08/22 06:13:24;;;;;;;8.70;7.90;;;27.90;99.90;;;;;;5072150;28;20263;-75
2023/08/22 06:15:51;;;;;;;9.05;8.35;;;28.10;99.90;;;;;;5074269;28;20299;-76
2023/08/22 06:18:18;;;;;;;9.30;8.50;;;28.20;99.90;;;;;;5073017;28;20768;-76
2023/08/22 06:20:46;;;;;;;9.60;8.73;;;28.30;99.90;;;;;;5068730;28;20216;-76
2023/08/22 06:23:13;;;;;;;9.55;8.75;;;28.40;99.90;;;;;;5072295;28;20220;-75
2023/08/22 06:25:40;;;;;;;9.75;8.95;;;28.50;99.90;;;;;;5072304;28;20239;-75
2023/08/22 06:28:07;;;;;;;10.18;9.18;;;28.50;99.90;;;;;;5068352;28;20199;-76
2023/08/22 06:30:35;;;;;;;8.95;8.15;;;28.20;99.90;;;;;;5075117;28;20248;-76
2023/08/22 06:33:03;;;;;;;8.15;7.55;;;28.00;99.90;;;;;;5072181;28;20202;-76
2023/08/22 06:35:31;;;;;;;8.85;8.15;;;27.90;99.90;;;;;;5074040;28;20225;-77
2023/08/22 06:37:58;;;;;;;9.80;8.80;;;27.90;99.90;;;;;;5071070;28;20603;-79
2023/08/22 06:40:25;;;;;;;10.32;9.30;;;27.80;99.90;;;;;;5067176;28;20244;-76
2023/08/22 06:42:52;;;;;;;9.07;8.30;;;27.90;99.90;;;;;;5070541;28;20264;-76
2023/08/22 06:45:19;;;;;;;9.32;8.43;;;28.00;99.90;;;;;;5074894;28;20271;-76
2023/08/22 06:50:31;;;;;;;9.15;8.35;;;28.50;99.90;;;;;;5071063;28;20202;-75
2023/08/22 06:52:59;;;;;;;8.38;7.78;;;28.70;99.90;;;;;;5073448;28;20207;-76
2023/08/22 06:55:26;;;;;;;9.40;8.70;;;28.80;99.90;;;;;;5070156;28;20209;-77
2023/08/22 06:58:01;;;;;;;11.65;9.57;;;28.70;99.90;;;;;;5072292;28;20597;-76
2023/08/22 07:00:28;;;;;;;9.57;8.77;;;28.70;99.90;;;;;;5068477;28;20283;-77
2023/08/22 07:02:57;;;;;;;9.30;8.50;;;28.50;99.90;;;;;;5065506;28;20254;-75
2023/08/22 07:05:24;;;;;;;9.38;8.68;;;28.50;99.90;;;;;;5070218;28;20281;-75
2023/08/22 07:07:51;;;;;;;9.32;8.52;;;28.50;99.90;;;;;;5069082;28;20280;-77
2023/08/22 07:10:18;;;;;;;10.60;9.70;;;28.70;99.90;;;;;;5067085;28;20202;-76
2023/08/22 07:12:45;;;;;;;10.32;9.32;;;28.80;99.90;;;;;;5065801;28;20202;-75
2023/08/22 07:15:12;;;;;;;9.40;8.48;;;28.80;99.90;;;;;;5068104;28;20190;-76
2023/08/22 07:17:39;;;;;;;9.43;8.63;;;28.80;99.90;;;;;;5063046;28;20291;-76
2023/08/22 07:20:09;;;;;;;10.70;9.70;;;28.90;99.90;;;;;;5072640;28;20221;-75
2023/08/22 07:22:36;;;;;;;10.13;9.20;;;29.00;99.90;;;;;;5059608;28;20206;-76
2023/08/22 07:25:04;;;;;;;8.98;8.10;;;28.90;99.90;;;;;;5068979;28;20198;-75
2023/08/22 07:27:31;;;;;;;9.27;8.48;;;28.80;99.90;;;;;;5063517;28;20267;-75
2023/08/22 07:29:58;;;;;;;9.05;8.23;;;29.00;99.90;;;;;;5059089;28;20263;-75
2023/08/22 07:32:25;;;;;;;9.63;8.48;;;29.10;99.90;;;;;;5070967;28;20198;-76
2023/08/22 07:34:52;;;;;;;9.32;8.43;;;29.20;99.90;;;;;;5068767;28;20759;-76
2023/08/22 07:37:20;;;;;;;9.23;8.52;;;29.20;99.90;;;;;;5071035;28;20264;-75
2023/08/22 07:39:47;;;;;;;9.20;8.40;;;29.30;99.90;;;;;;5073132;28;20271;-75
2023/08/22 07:42:16;;;;;;;8.77;7.95;;;29.30;99.90;;;;;;5068709;28;20591;-76
2023/08/22 07:44:43;;;;;;;9.05;8.35;;;29.40;99.90;;;;;;5071552;28;20206;-76
2023/08/22 07:47:10;;;;;;;9.95;9.02;;;29.50;99.90;;;;;;5066567;28;20253;-75
2023/08/22 07:49:37;;;;;;;9.18;8.48;;;29.60;99.90;;;;;;5071900;28;20206;-76
2023/08/22 07:52:04;;;;;;;9.63;8.77;;;29.70;99.90;;;;;;5073017;28;20251;-75
2023/08/22 07:54:33;;;;;;;10.80;9.90;;;29.70;99.90;;;;;;5072899;28;20208;-75
2023/08/22 07:57:01;;;;;;;10.27;9.27;;;29.70;99.90;;;;;;5064964;28;20627;-75
2023/08/22 07:59:29;;;;;;;10.02;9.13;;;29.60;99.90;;;;;;5070620;28;20198;-75
2023/08/22 08:01:56;;;;;;;10.13;9.27;;;29.50;99.90;;;;;;5066674;28;20203;-75
2023/08/22 08:04:23;;;;;;;10.23;9.32;;;29.50;99.90;;;;;;5064565;28;20203;-76
2023/08/22 08:06:50;;;;;;;10.82;9.95;;;29.50;99.90;;;;;;5075690;28;20263;-75
2023/08/22 08:09:17;;;;;;;10.65;9.55;;;29.50;99.90;;;;;;5065408;28;20210;-76
2023/08/22 08:11:45;;;;;;;9.55;8.85;;;29.60;99.90;;;;;;5075902;28;20201;-75
2023/08/22 08:14:12;;;;;;;9.40;8.63;;;29.80;99.90;;;;;;5066811;28;20198;-75
2023/08/22 08:16:39;;;;;;;10.68;9.73;;;29.90;99.90;;;;;;5067997;28;20226;-75
2023/08/22 08:19:06;;;;;;;10.73;9.75;;;30.10;99.90;;;;;;5069793;28;20202;-76
2023/08/22 08:21:34;;;;;;;11.00;10.00;;;30.20;99.90;;;;;;5065933;28;20202;-75
2023/08/22 08:24:01;;;;;;;9.98;9.18;;;30.30;99.90;;;;;;5070222;28;20680;-75
2023/08/22 08:26:28;;;;;;;9.40;8.70;;;30.40;99.90;;;;;;5056605;28;20215;-75
2023/08/22 08:28:56;;;;;;;9.85;9.00;;;30.40;99.90;;;;;;5069206;28;20202;-76
2023/08/22 08:31:23;;;;;;;10.43;9.30;;;30.40;99.90;;;;;;5066914;28;20202;-76
2023/08/22 08:33:56;;;;;;;10.50;9.60;;;30.60;99.90;;;;;;5062024;28;20248;-76
2023/08/22 08:36:26;;;;;;;9.93;9.10;;;30.70;99.90;;;;;;5067547;28;20759;-77
2023/08/22 08:38:53;;;;;;;10.68;9.73;;;30.80;99.90;;;;;;5067150;28;20268;-76
2023/08/22 08:41:22;;;;;;;10.10;9.00;;;30.90;99.90;;;;;;5062827;28;20619;-77
2023/08/22 08:43:50;;;;;;;9.98;9.18;;;30.90;99.90;;;;;;5062202;28;20264;-76
2023/08/22 08:46:19;;;;;;;10.50;9.45;;;31.00;99.90;;;;;;5065813;28;20296;-77
2023/08/22 08:48:47;;;;;;;10.90;9.98;;;31.20;99.90;;;;;;5064560;28;20207;-76
2023/08/22 08:51:16;;;;;;;10.55;9.65;;;31.20;99.90;;;;;;5054542;28;20206;-75
2023/08/22 08:53:46;;;;;;;10.18;9.25;;;31.30;99.90;;;;;;5061043;28;20198;-75
2023/08/22 08:56:14;;;;;;;10.07;9.27;;;31.70;99.90;;;;;;5054210;28;20219;-75
2023/08/22 08:58:41;;;;;;;9.57;8.68;;;31.90;99.90;;;;;;5060234;28;20202;-75
2023/08/22 09:01:08;;;;;;;9.77;8.98;;;32.00;99.90;;;;;;5058572;28;20202;-75
2023/08/22 09:03:37;;;;;;;10.27;9.30;;;32.10;99.90;;;;;;5062937;28;20203;-75
2023/08/22 09:06:04;;;;;;;10.10;9.20;;;32.20;99.90;;;;;;5063181;28;20240;-77
2023/08/22 09:08:31;;;;;;;9.73;8.88;;;32.20;99.90;;;;;;5061346;28;20214;-76
2023/08/22 09:10:57;;;;;;;10.27;9.38;;;32.20;99.90;;;;;;5052919;28;20241;-75
2023/08/22 09:13:28;;;;;;;9.48;8.70;;;32.20;99.90;;;;;;5054515;28;20190;-76
2023/08/22 09:16:00;;;;;;;9.80;9.00;;;32.10;99.90;;;;;;5055712;28;20198;-76
2023/08/22 09:18:27;;;;;;;10.50;9.50;;;32.30;99.90;;;;;;5056602;28;20285;-75
2023/08/22 09:21:03;;;;;;;9.55;8.75;;;32.30;99.90;;;;;;5058076;28;20252;-77
2023/08/22 09:23:32;;;;;;;8.73;7.90;;;32.40;99.90;;;;;;5058456;28;20263;-75
2023/08/22 09:26:01;;;;;;;9.95;9.15;;;32.50;99.90;;;;;;5056922;28;20218;-75
2023/08/22 09:28:28;;;;;;;9.82;8.82;;;32.60;99.90;;;;;;5057765;28;20257;-76
2023/08/22 09:30:55;;;;;;;9.75;8.98;;;32.50;99.90;;;;;;5054915;28;20227;-75
2023/08/22 09:33:22;;;;;;;9.82;8.85;;;32.60;99.90;;;;;;5057558;28;20202;-76
2023/08/22 09:35:57;;;;;;;9.40;8.70;;;32.90;99.90;;;;;;5052157;28;20244;-76
2023/08/22 09:38:24;;;;;;;9.48;8.57;;;33.30;99.90;;;;;;5056023;28;20312;-76
2023/08/22 09:40:55;;;;;;;11.02;10.13;;;33.50;99.90;;;;;;5053764;28;20701;-75
2023/08/22 09:43:23;;;;;;;10.38;9.55;;;33.60;99.90;;;;;;5052950;28;20211;-76
2023/08/22 09:45:51;;;;;;;10.32;9.43;;;33.40;99.90;;;;;;5059705;28;20221;-76
2023/08/22 09:48:24;;;;;;;9.07;8.27;;;33.40;99.90;;;;;;5056004;28;20276;-75
2023/08/22 09:51:00;;;;;;;9.02;8.32;;;33.40;99.90;;;;;;5059367;28;20227;-76
2023/08/22 09:53:30;;;;;;;9.77;8.88;;;33.40;99.90;;;;;;5054512;28;20229;-76
2023/08/22 09:55:57;;;;;;;10.10;9.30;;;33.60;99.90;;;;;;5055487;28;20784;-75
2023/08/22 09:58:29;;;;;;;9.27;8.45;;;33.60;99.90;;;;;;5056235;28;20217;-75
2023/08/22 10:00:57;;;;;;;9.50;8.77;;;33.60;99.90;;;;;;5051556;28;20727;-77
2023/08/22 10:03:25;;;;;;;10.00;9.13;;;33.80;99.90;;;;;;5054197;28;20203;-76
2023/08/22 10:05:53;;;;;;;10.05;9.07;;;34.10;99.90;;;;;;5055301;28;20260;-76
2023/08/22 10:08:20;;;;;;;9.82;8.93;;;34.30;99.90;;;;;;5052987;28;20202;-76
2023/08/22 10:10:48;;;;;;;9.45;8.30;;;34.20;99.90;;;;;;5059002;28;20195;-75
2023/08/22 10:13:18;;;;;;;10.27;9.38;;;34.10;99.90;;;;;;5065620;28;20202;-76
2023/08/22 10:15:47;;;;;;;9.90;9.02;;;33.90;99.90;;;;;;5058362;28;20202;-75
2023/08/22 10:18:14;;;;;;;10.00;8.63;;;33.90;99.90;;;;;;5054251;28;20211;-76
2023/08/22 10:20:43;;;;;;;9.77;8.85;;;34.10;99.90;;;;;;5058005;28;20231;-75
2023/08/22 10:23:10;;;;;;;8.40;7.72;;;34.00;99.90;;;;;;5057713;28;20244;-76
2023/08/22 10:25:49;;;;;;;9.77;8.60;;;34.20;99.90;;;;;;5059193;28;20307;-76
2023/08/22 10:28:17;;;;;;;9.45;8.65;;;34.20;99.90;;;;;;5057573;28;20642;-76
2023/08/22 10:31:03;;;;;;;9.82;8.98;;;34.20;99.90;;;;;;5059338;28;20755;-75
2023/08/22 10:33:30;;;;;;;8.98;8.18;;;34.20;99.90;;;;;;5062321;28;20274;-75
2023/08/22 10:36:05;;;;;;;8.73;8.05;;;34.30;99.90;;;;;;5056890;28;20445;-75
2023/08/22 10:38:53;;;;;;;8.65;8.02;;;34.50;99.90;;;;;;5057543;28;20283;-75
2023/08/22 10:41:43;;;;;;;10.77;9.38;;;34.40;99.90;;;;;;5061611;28;20206;-76
2023/08/22 10:44:17;;;;;;;10.77;9.07;;;34.20;99.90;;;;;;5060881;28;21091;-76
2023/08/22 10:47:02;;;;;;;9.50;8.70;;;34.20;99.90;;;;;;5062395;28;20213;-75
2023/08/22 10:49:30;;;;;;;9.35;8.65;;;34.60;99.90;;;;;;5060718;28;20241;-77
2023/08/22 10:52:04;;;;;;;12.18;9.43;;;34.90;99.90;;;;;;5060006;28;20226;-76
2023/08/22 10:54:32;;;;;;;9.60;8.73;;;34.60;99.90;;;;;;5059120;28;20792;-76
2023/08/22 10:57:19;;;;;;;9.52;8.73;;;34.50;99.90;;;;;;5064650;28;20771;-76
2023/08/22 11:00:05;;;;;;;9.95;9.15;;;34.70;99.90;;;;;;5054324;28;20275;-76
2023/08/22 11:02:33;;;;;;;10.05;9.10;;;34.80;99.90;;;;;;5064782;28;20206;-75
2023/08/22 11:05:02;;;;;;;10.70;9.80;;;34.70;99.90;;;;;;5062951;28;20213;-76
2023/08/22 11:07:30;;;;;;;11.00;8.85;;;34.40;99.90;;;;;;5058746;28;20222;-77
2023/08/22 11:09:58;;;;;;;9.73;8.80;;;34.30;99.90;;;;;;5062759;28;20225;-76
2023/08/22 11:12:27;;;;;;;9.90;9.10;;;34.40;99.90;;;;;;5056635;28;20194;-76
2023/08/22 11:14:57;;;;;;;9.25;8.55;;;34.20;99.90;;;;;;5060278;28;20202;-76
2023/08/22 11:17:25;;;;;;;9.60;8.68;;;34.20;99.90;;;;;;5059759;28;20245;-76
2023/08/22 11:19:55;;;;;;;8.70;8.00;;;34.30;99.90;;;;;;5060478;28;20854;-76
2023/08/22 11:22:22;;;;;;;8.90;8.20;;;34.30;99.90;;;;;;5058516;28;20572;-76
2023/08/22 11:24:51;;;;;;;9.23;8.52;;;34.30;99.90;;;;;;5057411;28;20226;-76
2023/08/22 11:27:19;;;;;;;8.88;8.27;;;34.50;99.90;;;;;;5060208;28;20279;-76
2023/08/22 11:29:49;;;;;;;9.55;8.75;;;34.70;99.90;;;;;;5056714;28;21997;-77
2023/08/22 11:32:21;;;;;;;8.80;8.00;;;35.00;99.90;;;;;;5058062;28;21182;-77
2023/08/22 11:34:50;;;;;;;9.30;8.30;;;35.10;99.90;;;;;;5056830;28;20281;-76
2023/08/22 11:37:17;;;;;;;8.05;7.43;;;35.20;99.90;;;;;;5058512;28;20824;-77
2023/08/22 11:39:47;;;;;;;8.88;8.18;;;35.10;99.90;;;;;;5040597;28;20740;-76
2023/08/22 11:42:15;;;;;;;8.00;7.30;;;35.20;99.90;;;;;;5049913;28;20293;-76
2023/08/22 11:45:00;;;;;;;8.07;7.38;;;35.20;99.90;;;;;;5052964;28;21034;-77
2023/08/22 11:47:37;;;;;;;7.35;6.75;;;35.20;99.90;;;;;;5059262;28;20238;-76
2023/08/22 11:50:05;;;;;;;8.23;7.43;;;35.10;99.90;;;;;;5060232;28;20296;-76
2023/08/22 11:52:32;;;;;;;7.35;6.85;;;35.10;99.90;;;;;;5057052;28;20214;-77
2023/08/22 11:55:04;;;;;;;8.30;7.65;;;35.30;99.90;;;;;;5059564;28;20190;-77
2023/08/22 11:57:32;;;;;;;7.55;6.95;;;35.30;99.90;;;;;;5061514;28;20244;-77
2023/08/22 12:00:03;;;;;;;8.80;7.97;;;35.50;99.90;;;;;;5061181;28;20202;-77
2023/08/22 12:02:30;;;;;;;8.60;7.75;;;35.50;99.90;;;;;;5054612;28;20210;-80
2023/08/22 12:04:57;;;;;;;8.05;7.45;;;35.30;99.90;;;;;;5054924;28;20205;-75
2023/08/22 12:07:24;;;;;;;8.13;7.43;;;35.20;99.90;;;;;;5055079;28;20226;-76
2023/08/22 12:10:12;;;;;;;8.02;7.32;;;35.10;99.90;;;;;;5058431;28;20680;-77
2023/08/22 12:12:39;;;;;;;8.15;7.38;;;35.10;99.90;;;;;;5063850;28;20256;-78
2023/08/22 12:15:09;;;;;;;8.13;7.43;;;35.10;99.90;;;;;;5061877;28;20223;-78
2023/08/22 12:17:35;;;;;;;8.07;7.38;;;35.00;99.90;;;;;;5052666;28;20249;-77
2023/08/22 12:20:03;;;;;;;7.47;6.85;;;35.10;99.90;;;;;;5056271;28;20827;-78
2023/08/22 12:22:30;;;;;;;7.43;6.82;;;35.20;99.90;;;;;;5059567;28;20669;-78
2023/08/22 12:24:57;;;;;;;8.13;7.40;;;35.40;99.90;;;;;;5058431;28;20203;-76
2023/08/22 12:27:27;;;;;;;7.82;7.13;;;35.40;99.90;;;;;;5059009;28;20222;-76
2023/08/22 12:29:54;;;;;;;7.97;7.28;;;35.50;99.90;;;;;;5056108;28;20687;-77
2023/08/22 12:32:22;;;;;;;7.82;7.18;;;35.50;99.90;;;;;;5059248;28;20260;-78
2023/08/22 12:34:49;;;;;;;7.65;6.93;;;35.60;99.90;;;;;;5060059;28;20696;-77
2023/08/22 12:37:16;;;;;;;8.45;7.80;;;35.70;99.90;;;;;;5062010;28;20898;-78
2023/08/22 12:39:43;;;;;;;8.88;8.10;;;35.70;99.90;;;;;;5060279;28;20354;-78
2023/08/22 12:42:10;;;;;;;8.77;8.02;;;35.60;99.90;;;;;;5062402;28;20252;-78
2023/08/22 12:44:37;;;;;;;8.63;7.93;;;35.50;99.90;;;;;;5057195;28;20271;-78
2023/08/22 12:47:04;;;;;;;9.13;8.35;;;35.30;99.90;;;;;;5059323;28;20217;-79
2023/08/22 12:49:32;;;;;;;8.82;8.05;;;35.30;99.90;;;;;;5062523;28;20230;-77
2023/08/22 12:52:00;;;;;;;9.05;8.25;;;35.30;99.90;;;;;;5062116;28;20244;-77
2023/08/22 12:54:26;;;;;;;8.75;8.05;;;35.30;99.90;;;;;;5057001;28;22082;-78